createdAt,value
2018-05-06T00:00:47.793Z,15.21
2018-05-06T00:03:15.281Z,15.17
2018-05-06T00:05:42.827Z,15.11
2018-05-06T00:08:10.632Z,15.00
2018-05-06T00:10:38.075Z,14.98
2018-05-06T00:13:06.488Z,14.89
2018-05-06T00:15:33.880Z,14.92
2018-05-06T00:18:04.844Z,14.92
2018-05-06T00:20:32.237Z,14.96
2018-05-06T00:22:59.862Z,15.00
2018-05-06T00:25:27.251Z,14.99
2018-05-06T00:27:54.654Z,15.04
2018-05-06T00:30:22.051Z,15.10
2018-05-06T00:32:49.439Z,15.08
2018-05-06T00:35:17.197Z,15.04
2018-05-06T00:37:44.571Z,15.00
2018-05-06T00:40:12.300Z,14.87
2018-05-06T00:42:39.696Z,14.87
2018-05-06T00:45:07.924Z,14.82
2018-05-06T00:47:35.327Z,14.73
2018-05-06T00:50:02.733Z,14.69
2018-05-06T00:52:30.376Z,14.64
2018-05-06T00:54:57.767Z,14.62
2018-05-06T00:57:25.147Z,14.62
2018-05-06T00:59:53.478Z,14.60
2018-05-06T01:02:20.860Z,14.57
2018-05-06T01:04:48.247Z,14.48
2018-05-06T01:07:16.319Z,14.42
2018-05-06T01:09:43.719Z,14.40
2018-05-06T01:12:11.124Z,14.36
2018-05-06T01:14:39.263Z,14.29
2018-05-06T01:17:06.651Z,14.25
2018-05-06T01:19:34.121Z,14.17
2018-05-06T01:22:01.885Z,14.15
2018-05-06T01:24:29.267Z,14.15
2018-05-06T01:26:56.665Z,14.06
2018-05-06T01:29:24.040Z,13.99
2018-05-06T01:31:51.445Z,13.88
2018-05-06T01:34:19.761Z,13.85
2018-05-06T01:36:47.160Z,13.80
2018-05-06T01:39:14.540Z,13.71
2018-05-06T01:41:41.940Z,13.73
2018-05-06T01:44:09.402Z,13.69
2018-05-06T01:46:36.805Z,13.73
2018-05-06T01:49:05.155Z,13.66
2018-05-06T01:51:32.814Z,13.56
2018-05-06T01:54:00.261Z,13.48
2018-05-06T01:56:27.663Z,13.54
2018-05-06T01:58:55.552Z,13.51
2018-05-06T02:01:22.953Z,13.45
2018-05-06T02:03:50.345Z,13.38
2018-05-06T02:06:17.858Z,13.38
2018-05-06T02:08:45.244Z,13.36
2018-05-06T02:11:12.636Z,13.30
2018-05-06T02:13:40.550Z,13.28
2018-05-06T02:16:07.948Z,13.22
2018-05-06T02:18:35.764Z,13.28
2018-05-06T02:21:04.073Z,13.27
2018-05-06T02:23:31.452Z,13.24
2018-05-06T02:25:58.845Z,13.24
2018-05-06T02:28:26.239Z,13.23
2018-05-06T02:30:54.529Z,13.26
2018-05-06T02:33:23.158Z,13.18
2018-05-06T02:35:50.563Z,13.13
2018-05-06T02:38:17.936Z,13.15
2018-05-06T02:40:46.284Z,13.06
2018-05-06T02:43:13.675Z,13.06
2018-05-06T02:45:41.060Z,13.07
2018-05-06T02:48:09.158Z,13.02
2018-05-06T02:50:36.528Z,13.00
2018-05-06T02:53:03.929Z,13.06
2018-05-06T02:55:31.316Z,12.98
2018-05-06T02:57:58.718Z,12.96
2018-05-06T03:00:26.098Z,12.89
2018-05-06T03:02:53.489Z,12.74
2018-05-06T03:05:20.875Z,12.74
2018-05-06T03:07:48.266Z,12.72
2018-05-06T03:10:15.656Z,12.80
2018-05-06T03:12:43.039Z,12.77
2018-05-06T03:15:10.428Z,12.74
2018-05-06T03:17:37.830Z,12.64
2018-05-06T03:20:06.340Z,12.68
2018-05-06T03:25:08.058Z,12.63
2018-05-06T03:27:35.468Z,12.55
2018-05-06T03:30:02.857Z,12.43
2018-05-06T03:32:30.256Z,12.41
2018-05-06T03:34:58.608Z,12.41
2018-05-06T03:37:26.016Z,12.42
2018-05-06T03:39:53.393Z,12.43
2018-05-06T03:42:20.772Z,12.38
2018-05-06T03:44:48.615Z,12.37
2018-05-06T03:47:16.583Z,12.47
2018-05-06T03:49:45.795Z,12.43
2018-05-06T03:52:13.184Z,12.41
2018-05-06T03:54:40.589Z,12.30
2018-05-06T03:57:20.042Z,12.30
2018-05-06T04:00:00.101Z,12.18
2018-05-06T04:02:42.368Z,12.16
2018-05-06T04:05:10.677Z,12.20
2018-05-06T04:07:38.046Z,12.14
2018-05-06T04:10:05.743Z,12.18
2018-05-06T04:12:33.142Z,12.16
2018-05-06T04:15:00.555Z,12.19
2018-05-06T04:17:28.232Z,12.31
2018-05-06T04:19:55.622Z,12.42
2018-05-06T04:22:23.008Z,12.49
2018-05-06T04:24:50.408Z,12.61
2018-05-06T04:27:18.227Z,12.61
2018-05-06T04:29:46.439Z,12.60
2018-05-06T04:32:13.833Z,12.61
2018-05-06T04:34:41.223Z,12.61
2018-05-06T04:37:08.611Z,12.65
2018-05-06T04:39:36.008Z,12.66
2018-05-06T04:42:03.385Z,12.76
2018-05-06T04:44:31.397Z,12.77
2018-05-06T04:46:58.788Z,12.81
2018-05-06T04:49:26.167Z,12.86
2018-05-06T04:51:53.721Z,12.95
2018-05-06T04:54:22.015Z,13.04
2018-05-06T04:56:49.391Z,13.13
2018-05-06T04:59:18.295Z,13.09
2018-05-06T05:01:45.671Z,13.24
2018-05-06T05:04:13.058Z,13.21
2018-05-06T05:06:40.499Z,13.30
2018-05-06T05:09:07.872Z,13.37
2018-05-06T05:11:35.306Z,13.38
2018-05-06T05:14:21.611Z,13.22
2018-05-06T05:16:49.407Z,13.24
2018-05-06T05:19:16.887Z,13.19
2018-05-06T05:21:44.295Z,13.29
2018-05-06T05:24:11.691Z,13.27
2018-05-06T05:26:39.145Z,13.43
2018-05-06T05:29:06.574Z,13.60
2018-05-06T05:31:35.263Z,13.64
2018-05-06T05:34:02.708Z,13.72
2018-05-06T05:36:30.154Z,14.04
2018-05-06T05:38:57.594Z,15.46
2018-05-06T05:41:25.079Z,16.35
2018-05-06T05:43:52.554Z,17.09
2018-05-06T05:46:20.000Z,17.04
2018-05-06T05:48:47.442Z,17.57
2018-05-06T05:51:14.835Z,17.47
2018-05-06T05:53:42.219Z,18.04
2018-05-06T05:56:09.620Z,18.62
2018-05-06T05:58:37.341Z,18.07
2018-05-06T06:01:04.740Z,18.22
2018-05-06T06:03:32.121Z,17.97
2018-05-06T06:05:59.513Z,17.88
2018-05-06T06:08:26.901Z,18.23
2018-05-06T06:10:54.542Z,17.99
2018-05-06T06:13:21.920Z,19.05
2018-05-06T06:15:50.111Z,19.24
2018-05-06T06:18:17.515Z,18.45
2018-05-06T06:20:45.032Z,18.35
2018-05-06T06:23:13.889Z,18.60
2018-05-06T06:25:42.089Z,17.48
2018-05-06T06:28:09.517Z,16.28
2018-05-06T06:30:36.995Z,15.61
2018-05-06T06:33:04.520Z,15.45
2018-05-06T06:35:32.828Z,15.42
2018-05-06T06:38:00.328Z,15.35
2018-05-06T06:40:27.849Z,15.28
2018-05-06T06:42:55.935Z,15.31
2018-05-06T06:45:23.290Z,15.37
2018-05-06T06:47:51.680Z,15.47
2018-05-06T06:50:19.134Z,15.42
2018-05-06T06:52:46.580Z,15.58
2018-05-06T06:55:14.950Z,15.45
2018-05-06T06:57:42.513Z,15.36
2018-05-06T07:00:09.883Z,15.60
2018-05-06T07:02:39.029Z,15.47
2018-05-06T07:05:06.434Z,15.49
2018-05-06T07:07:33.880Z,15.42
2018-05-06T07:10:01.356Z,15.62
2018-05-06T07:12:29.169Z,16.04
2018-05-06T07:14:56.555Z,15.84
2018-05-06T07:17:24.019Z,15.84
2018-05-06T07:19:52.603Z,16.05
2018-05-06T07:22:20.060Z,16.05
2018-05-06T07:24:47.508Z,16.10
2018-05-06T07:27:14.897Z,16.17
2018-05-06T07:29:44.461Z,16.11
2018-05-06T07:32:11.864Z,16.08
2018-05-06T07:34:39.245Z,16.05
2018-05-06T07:37:07.967Z,16.43
2018-05-06T07:39:35.450Z,16.54
2018-05-06T07:42:02.906Z,16.64
2018-05-06T07:44:30.367Z,16.31
2018-05-06T07:46:57.822Z,16.55
2018-05-06T07:49:25.966Z,16.76
2018-05-06T07:51:53.652Z,16.67
2018-05-06T07:54:21.111Z,16.80
2018-05-06T07:56:48.569Z,16.69
2018-05-06T07:59:16.522Z,16.90
2018-05-06T08:01:43.977Z,17.01
2018-05-06T08:04:11.466Z,16.92
2018-05-06T08:06:39.604Z,17.05
2018-05-06T08:09:06.996Z,16.97
2018-05-06T08:11:34.383Z,17.26
2018-05-06T08:14:02.622Z,17.42
2018-05-06T08:16:30.062Z,17.52
2018-05-06T08:18:57.444Z,17.36
2018-05-06T08:21:25.824Z,17.48
2018-05-06T08:23:53.371Z,17.47
2018-05-06T08:26:20.856Z,17.41
2018-05-06T08:28:49.223Z,17.52
2018-05-06T08:31:16.706Z,17.79
2018-05-06T08:36:50.802Z,17.91
2018-05-06T08:39:28.517Z,18.12
2018-05-06T08:41:57.871Z,18.18
2018-05-06T08:44:25.601Z,18.13
2018-05-06T08:46:53.009Z,18.44
2018-05-06T08:49:20.616Z,18.41
2018-05-06T08:51:49.476Z,18.37
2018-05-06T08:54:17.328Z,18.41
2018-05-06T08:56:44.714Z,18.63
2018-05-06T08:59:12.100Z,18.71
2018-05-06T09:01:39.498Z,18.86
2018-05-06T09:04:07.806Z,18.79
2018-05-06T09:06:35.171Z,18.90
2018-05-06T09:09:02.559Z,18.77
2018-05-06T09:11:29.956Z,19.04
2018-05-06T09:13:58.254Z,19.00
2018-05-06T09:16:25.652Z,18.88
2018-05-06T09:18:53.423Z,18.61
2018-05-06T09:21:20.811Z,19.21
2018-05-06T09:23:48.798Z,19.32
2018-05-06T09:26:16.163Z,19.16
2018-05-06T09:28:43.571Z,19.17
2018-05-06T09:31:11.167Z,19.23
2018-05-06T09:33:38.550Z,19.43
2018-05-06T09:36:06.244Z,19.42
2018-05-06T09:38:34.281Z,19.62
2018-05-06T09:41:01.674Z,19.77
2018-05-06T09:43:33.179Z,20.05
2018-05-06T09:46:00.586Z,20.18
2018-05-06T09:48:27.971Z,19.88
2018-05-06T09:50:55.359Z,19.86
2018-05-06T09:53:22.755Z,19.87
2018-05-06T09:55:50.155Z,19.77
2018-05-06T09:58:17.893Z,20.28
2018-05-06T10:00:45.274Z,19.97
2018-05-06T10:03:12.656Z,20.25
2018-05-06T10:05:40.971Z,20.32
2018-05-06T10:08:09.257Z,20.34
2018-05-06T10:10:37.167Z,20.35
2018-05-06T10:13:04.560Z,20.77
2018-05-06T10:15:31.967Z,20.61
2018-05-06T10:17:59.342Z,20.56
2018-05-06T10:20:26.750Z,20.48
2018-05-06T10:22:55.273Z,20.51
2018-05-06T10:25:22.669Z,20.92
2018-05-06T10:27:50.072Z,21.16
2018-05-06T10:30:17.543Z,20.65
2018-05-06T10:32:44.935Z,21.03
2018-05-06T10:35:12.610Z,21.09
2018-05-06T10:37:39.996Z,21.24
2018-05-06T10:40:07.416Z,21.56
2018-05-06T10:42:34.872Z,21.58
2018-05-06T10:45:02.258Z,21.29
2018-05-06T10:47:30.412Z,21.48
2018-05-06T10:49:57.795Z,21.72
2018-05-06T10:52:25.184Z,21.75
2018-05-06T10:55:01.465Z,21.28
2018-05-06T10:57:30.189Z,21.62
2018-05-06T10:59:58.662Z,21.78
2018-05-06T11:02:27.244Z,22.10
2018-05-06T11:04:54.640Z,21.69
2018-05-06T11:07:22.037Z,22.13
2018-05-06T11:09:49.505Z,22.05
2018-05-06T11:12:18.226Z,22.20
2018-05-06T11:14:46.319Z,22.20
2018-05-06T11:17:13.724Z,22.24
2018-05-06T11:19:41.124Z,22.15
2018-05-06T11:22:08.527Z,22.13
2018-05-06T11:24:35.920Z,22.29
2018-05-06T11:27:03.359Z,22.59
2018-05-06T11:29:31.085Z,22.44
2018-05-06T11:31:58.539Z,22.31
2018-05-06T11:34:25.927Z,22.34
2018-05-06T11:36:53.351Z,22.78
2018-05-06T11:39:20.797Z,22.69
2018-05-06T11:41:48.180Z,22.36
2018-05-06T11:44:15.577Z,22.29
2018-05-06T11:46:42.963Z,22.53
2018-05-06T11:49:10.380Z,22.83
2018-05-06T11:51:38.676Z,22.57
2018-05-06T11:54:06.071Z,22.68
2018-05-06T11:56:33.505Z,22.72
2018-05-06T11:59:00.972Z,22.56
2018-05-06T12:01:28.634Z,22.94
2018-05-06T12:03:56.244Z,22.91
2018-05-06T12:06:23.632Z,22.82
2018-05-06T12:08:51.062Z,22.85
2018-05-06T12:11:18.483Z,22.91
2018-05-06T12:13:45.875Z,23.05
2018-05-06T12:16:14.152Z,22.88
2018-05-06T12:18:41.556Z,23.28
2018-05-06T12:21:08.939Z,23.27
2018-05-06T12:23:36.338Z,23.20
2018-05-06T12:26:03.990Z,22.90
2018-05-06T12:28:31.750Z,23.10
2018-05-06T12:30:59.152Z,23.17
2018-05-06T12:33:26.539Z,23.39
2018-05-06T12:35:53.930Z,23.24
2018-05-06T12:38:21.327Z,23.47
2018-05-06T12:40:48.709Z,23.05
2018-05-06T12:43:16.193Z,23.14
2018-05-06T12:45:43.699Z,23.19
2018-05-06T12:48:11.090Z,23.33
2018-05-06T12:50:38.496Z,22.94
2018-05-06T12:53:06.002Z,23.17
2018-05-06T12:55:34.364Z,23.16
2018-05-06T12:58:01.816Z,23.28
2018-05-06T13:00:29.251Z,23.45
2018-05-06T13:02:56.715Z,23.47
2018-05-06T13:05:24.164Z,23.33
2018-05-06T13:07:52.033Z,23.21
2018-05-06T13:10:20.423Z,23.35
2018-05-06T13:12:47.796Z,23.45
2018-05-06T13:15:15.428Z,23.40
2018-05-06T13:17:42.820Z,23.88
2018-05-06T13:20:10.251Z,23.42
2018-05-06T13:22:38.836Z,23.52
2018-05-06T13:25:06.301Z,23.72
2018-05-06T13:27:33.744Z,23.58
2018-05-06T13:30:01.217Z,23.75
2018-05-06T13:32:28.688Z,23.88
2018-05-06T13:34:56.811Z,23.37
2018-05-06T13:37:24.775Z,23.24
2018-05-06T13:39:52.179Z,23.60
2018-05-06T13:42:19.707Z,23.47
2018-05-06T13:44:47.104Z,23.37
2018-05-06T13:47:14.854Z,23.58
2018-05-06T13:49:42.264Z,23.64
2018-05-06T13:52:09.669Z,23.72
2018-05-06T13:54:37.064Z,23.66
2018-05-06T13:57:05.321Z,23.97
2018-05-06T13:59:32.708Z,23.71
2018-05-06T14:02:00.093Z,23.90
2018-05-06T14:04:27.478Z,24.06
2018-05-06T14:06:54.923Z,23.81
2018-05-06T14:09:23.495Z,23.67
2018-05-06T22:02:37.772Z,14.28
2018-05-06T22:05:05.177Z,14.28
2018-05-06T22:07:32.613Z,14.29
2018-05-06T22:09:59.955Z,14.23
2018-05-06T22:12:27.326Z,14.21
2018-05-06T22:14:55.250Z,14.13
2018-05-06T22:17:22.633Z,14.07
2018-05-06T22:19:50.028Z,14.09
2018-05-06T22:22:17.446Z,14.14
2018-05-06T22:24:44.807Z,14.23
2018-05-06T22:27:12.196Z,14.56
2018-05-06T22:29:39.587Z,14.60
2018-05-06T22:32:06.990Z,14.68
2018-05-06T22:34:34.412Z,14.68
2018-05-06T22:37:01.792Z,14.33
2018-05-06T22:39:29.960Z,14.13
2018-05-06T22:41:57.347Z,13.91
2018-05-06T22:44:24.740Z,13.70
2018-05-06T22:46:52.123Z,13.51
2018-05-06T22:49:19.506Z,13.25
2018-05-06T22:51:46.930Z,13.23
2018-05-06T22:54:14.286Z,13.14
2018-05-06T22:56:41.677Z,13.07
2018-05-06T22:59:09.064Z,12.93
2018-05-06T23:01:36.455Z,12.92
2018-05-06T23:04:03.839Z,12.88
2018-05-06T23:06:31.231Z,12.81
2018-05-06T23:08:58.623Z,12.86
2018-05-06T23:11:26.026Z,12.94
2018-05-06T23:13:53.403Z,12.85
2018-05-06T23:16:20.862Z,12.91
2018-05-06T23:18:48.195Z,12.94
2018-05-06T23:21:15.591Z,12.91
2018-05-06T23:23:42.992Z,13.04
2018-05-06T23:26:10.371Z,13.44
2018-05-06T23:28:37.757Z,13.72
2018-05-06T23:31:05.143Z,13.86
2018-05-06T23:33:32.537Z,13.85
2018-05-06T23:35:59.922Z,13.77
2018-05-06T23:38:28.128Z,13.83
2018-05-06T23:40:55.528Z,13.85
2018-05-06T23:43:22.925Z,13.80
2018-05-06T23:45:50.317Z,13.62
2018-05-06T23:48:17.700Z,13.22
2018-05-06T23:50:45.100Z,13.08
2018-05-06T23:53:12.489Z,12.80
2018-05-06T23:55:39.906Z,12.60
2018-05-06T23:58:07.268Z,12.39
